createdAt,value
2023-01-03T00:01:12.661Z,2.90
2023-01-03T00:03:39.417Z,2.90
2023-01-03T00:06:06.365Z,2.90
2023-01-03T00:08:33.097Z,2.90
2023-01-03T00:10:59.830Z,2.90
2023-01-03T00:13:26.493Z,2.90
2023-01-03T00:15:53.242Z,2.90
2023-01-03T00:18:19.915Z,2.90
2023-01-03T00:20:46.609Z,2.90
2023-01-03T00:23:13.340Z,2.90
2023-01-03T00:25:40.105Z,2.90
2023-01-03T00:28:06.909Z,2.90
2023-01-03T00:30:33.618Z,2.90
2023-01-03T00:33:00.720Z,3.00
2023-01-03T00:35:27.415Z,3.00
2023-01-03T00:37:54.099Z,3.00
2023-01-03T00:40:20.860Z,3.10
2023-01-03T00:43:06.342Z,3.10
2023-01-03T00:45:35.460Z,3.10
2023-01-03T00:48:02.755Z,3.20
2023-01-03T00:50:29.938Z,3.20
2023-01-03T00:52:56.809Z,3.20
2023-01-03T00:55:23.538Z,3.30
2023-01-03T00:57:50.306Z,3.30
2023-01-03T01:00:17.131Z,3.40
2023-01-03T01:02:44.018Z,3.40
2023-01-03T01:05:10.907Z,3.40
2023-01-03T01:07:37.649Z,3.50
2023-01-03T01:10:04.814Z,3.60
2023-01-03T01:12:31.492Z,3.70
2023-01-03T01:14:58.240Z,3.80
2023-01-03T01:17:27.821Z,3.80
2023-01-03T01:19:54.694Z,4.00
2023-01-03T01:22:21.371Z,4.00
2023-01-03T01:24:48.568Z,4.10
2023-01-03T01:27:15.302Z,4.20
2023-01-03T01:29:42.473Z,4.30
2023-01-03T01:32:09.125Z,4.40
2023-01-03T01:34:36.189Z,4.50
2023-01-03T01:37:02.869Z,4.50
2023-01-03T01:39:29.800Z,4.60
2023-01-03T01:42:22.336Z,4.70
2023-01-03T01:44:55.211Z,4.70
2023-01-03T01:47:30.067Z,4.80
2023-01-03T01:50:21.976Z,4.80
2023-01-03T01:52:50.703Z,4.90
2023-01-03T01:55:20.438Z,4.90
2023-01-03T01:57:47.253Z,4.90
2023-01-03T02:00:14.230Z,4.90
2023-01-03T02:02:41.085Z,5.00
2023-01-03T02:05:08.631Z,5.00
2023-01-03T02:07:35.264Z,5.00
2023-01-03T02:10:01.979Z,5.10
2023-01-03T02:12:50.870Z,5.10
2023-01-03T02:15:48.479Z,5.10
2023-01-03T02:18:37.472Z,5.20
2023-01-03T02:21:34.490Z,5.20
2023-01-03T02:24:26.283Z,5.30
2023-01-03T02:27:12.531Z,5.30
2023-01-03T02:30:05.560Z,5.30
2023-01-03T02:32:37.424Z,5.30
2023-01-03T02:35:17.987Z,5.40
2023-01-03T02:37:54.537Z,5.40
2023-01-03T02:40:27.026Z,5.50
2023-01-03T02:43:21.914Z,5.60
2023-01-03T02:46:13.970Z,5.70
2023-01-03T02:49:07.512Z,5.70
2023-01-03T02:51:37.209Z,5.80
2023-01-03T02:54:05.015Z,5.90
2023-01-03T02:56:37.782Z,5.90
2023-01-03T02:59:07.479Z,6.00
2023-01-03T03:01:34.201Z,6.00
2023-01-03T03:04:01.123Z,6.10
2023-01-03T03:06:42.303Z,6.10
2023-01-03T03:09:08.952Z,6.20
2023-01-03T03:11:54.868Z,6.20
2023-01-03T03:14:31.077Z,6.30
2023-01-03T03:17:00.433Z,6.30
2023-01-03T03:19:50.249Z,6.30
2023-01-03T03:22:57.419Z,6.30
2023-01-03T03:25:36.044Z,6.30
2023-01-03T03:28:26.191Z,6.40
2023-01-03T03:30:54.844Z,6.40
2023-01-03T03:33:21.917Z,6.40
2023-01-03T03:36:08.696Z,6.40
2023-01-03T03:38:37.461Z,6.40
2023-01-03T03:41:51.065Z,6.40
2023-01-03T03:44:53.547Z,6.40
2023-01-03T03:47:44.792Z,6.40
2023-01-03T03:50:17.570Z,6.40
2023-01-03T03:52:46.059Z,6.40
2023-01-03T03:55:17.743Z,6.50
2023-01-03T03:57:47.406Z,6.50
2023-01-03T04:00:21.628Z,6.60
2023-01-03T04:02:48.514Z,6.60
2023-01-03T04:05:18.206Z,6.60
2023-01-03T04:07:44.883Z,6.60
2023-01-03T04:10:11.776Z,6.60
2023-01-03T04:12:38.498Z,6.70
2023-01-03T04:15:06.991Z,6.70
2023-01-03T04:17:33.989Z,6.80
2023-01-03T04:20:00.718Z,6.80
2023-01-03T04:22:28.545Z,6.90
2023-01-03T04:24:55.317Z,6.90
2023-01-03T04:27:22.029Z,6.90
2023-01-03T04:29:48.676Z,6.90
2023-01-03T04:32:15.423Z,6.90
2023-01-03T04:34:42.203Z,6.90
2023-01-03T04:37:08.877Z,6.90
2023-01-03T04:39:35.559Z,6.90
2023-01-03T04:42:22.183Z,7.00
2023-01-03T04:44:48.855Z,7.00
2023-01-03T04:47:15.523Z,7.00
2023-01-03T04:49:46.304Z,7.00
2023-01-03T04:52:16.105Z,6.90
2023-01-03T04:54:43.029Z,6.90
2023-01-03T04:57:09.964Z,6.90
2023-01-03T04:59:36.784Z,6.80
2023-01-03T05:02:03.891Z,6.80
2023-01-03T05:04:30.789Z,6.70
2023-01-03T05:06:57.551Z,6.70
2023-01-03T05:09:24.313Z,6.70
2023-01-03T05:11:51.043Z,6.70
2023-01-03T05:14:17.689Z,6.60
2023-01-03T05:16:44.413Z,6.60
2023-01-03T05:19:11.152Z,6.60
2023-01-03T05:21:56.081Z,6.60
2023-01-03T05:24:41.179Z,6.60
2023-01-03T05:27:07.887Z,6.60
2023-01-03T05:29:34.768Z,6.70
2023-01-03T05:32:01.604Z,6.80
2023-01-03T05:34:28.322Z,6.80
2023-01-03T05:36:54.954Z,6.80
2023-01-03T05:39:21.603Z,6.90
2023-01-03T05:42:00.617Z,6.90
2023-01-03T05:44:32.021Z,6.90
2023-01-03T05:47:00.116Z,7.00
2023-01-03T05:49:26.821Z,7.00
2023-01-03T05:51:53.586Z,7.00
2023-01-03T05:54:20.405Z,7.00
2023-01-03T05:56:47.632Z,7.00
2023-01-03T05:59:14.596Z,7.00
2023-01-03T06:01:41.380Z,7.00
2023-01-03T06:04:08.224Z,7.00
2023-01-03T06:06:35.138Z,7.00
2023-01-03T06:09:01.869Z,7.00
2023-01-03T06:11:28.613Z,7.10
2023-01-03T06:13:55.293Z,7.10
2023-01-03T06:16:40.345Z,7.10
2023-01-03T06:19:07.323Z,7.10
2023-01-03T06:21:34.319Z,7.10
2023-01-03T06:24:01.001Z,7.10
2023-01-03T06:26:27.839Z,7.20
2023-01-03T06:28:54.584Z,7.20
2023-01-03T06:31:21.356Z,7.30
2023-01-03T06:33:48.420Z,7.30
2023-01-03T06:36:16.958Z,7.20
2023-01-03T06:38:43.737Z,7.20
2023-01-03T06:41:10.427Z,7.20
2023-01-03T06:43:37.134Z,7.20
2023-01-03T06:46:22.725Z,7.20
2023-01-03T06:49:08.285Z,7.20
2023-01-03T06:51:53.581Z,7.20
2023-01-03T06:54:27.443Z,7.30
2023-01-03T06:56:54.407Z,7.30
2023-01-03T06:59:21.488Z,7.30
2023-01-03T07:01:48.836Z,7.30
2023-01-03T07:04:15.883Z,7.40
2023-01-03T07:06:43.196Z,7.40
2023-01-03T07:09:10.210Z,7.40
2023-01-03T07:11:37.225Z,7.40
2023-01-03T07:14:04.171Z,7.40
2023-01-03T07:16:34.106Z,7.30
2023-01-03T07:19:01.009Z,7.30
2023-01-03T07:21:29.378Z,7.40
2023-01-03T07:23:56.720Z,7.40
2023-01-03T07:26:27.136Z,7.40
2023-01-03T07:28:53.811Z,7.40
2023-01-03T07:31:20.654Z,7.40
2023-01-03T07:33:47.437Z,7.40
2023-01-03T07:36:14.804Z,7.40
2023-01-03T07:38:42.764Z,7.40
2023-01-03T07:41:09.593Z,7.40
2023-01-03T07:43:37.192Z,7.50
2023-01-03T07:46:07.384Z,7.50
2023-01-03T07:48:34.576Z,7.60
2023-01-03T07:51:01.382Z,7.60
2023-01-03T07:53:28.135Z,7.70
2023-01-03T07:55:54.948Z,7.80
2023-01-03T07:58:21.676Z,7.90
2023-01-03T08:00:48.333Z,7.90
2023-01-03T08:03:17.586Z,7.90
2023-01-03T08:05:44.304Z,8.00
2023-01-03T08:08:11.086Z,8.00
2023-01-03T08:10:56.524Z,8.10
2023-01-03T08:13:25.092Z,8.10
2023-01-03T08:15:53.174Z,8.10
2023-01-03T08:18:21.713Z,8.10
2023-01-03T08:20:48.477Z,8.20
2023-01-03T08:23:15.261Z,8.20
2023-01-03T08:25:41.995Z,8.30
2023-01-03T08:28:09.066Z,8.30
2023-01-03T08:30:54.591Z,8.40
2023-01-03T08:33:21.573Z,8.50
2023-01-03T08:35:51.165Z,8.60
2023-01-03T08:38:21.310Z,8.70
2023-01-03T08:40:48.000Z,8.70
2023-01-03T08:43:15.137Z,8.80
2023-01-03T08:45:41.794Z,8.90
2023-01-03T08:48:08.831Z,8.90
2023-01-03T08:50:35.584Z,9.00
2023-01-03T08:53:02.494Z,9.10
2023-01-03T08:55:29.185Z,9.10
2023-01-03T08:57:56.462Z,9.20
2023-01-03T09:00:23.215Z,9.20
2023-01-03T09:02:50.188Z,9.30
2023-01-03T09:05:17.294Z,9.40
2023-01-03T09:07:44.710Z,9.40
2023-01-03T09:10:11.570Z,9.50
2023-01-03T09:12:38.211Z,9.60
2023-01-03T09:15:05.415Z,9.70
2023-01-03T09:17:32.147Z,9.70
2023-01-03T09:19:58.842Z,9.80
2023-01-03T09:22:25.602Z,9.80
2023-01-03T09:24:52.350Z,9.90
2023-01-03T09:27:19.089Z,9.90
2023-01-03T09:29:46.738Z,9.90
2023-01-03T09:32:13.598Z,9.90
2023-01-03T09:34:40.410Z,9.90
2023-01-03T09:37:07.080Z,9.90
2023-01-03T09:39:33.724Z,9.90
2023-01-03T09:42:19.538Z,9.90
2023-01-03T09:44:46.557Z,9.90
2023-01-03T09:47:18.883Z,9.90
2023-01-03T09:50:18.391Z,9.90
2023-01-03T09:52:51.356Z,9.90
2023-01-03T09:55:45.613Z,9.90
2023-01-03T09:58:34.341Z,9.90
2023-01-03T10:01:56.853Z,9.90
2023-01-03T10:04:42.313Z,9.90
2023-01-03T10:07:27.190Z,9.90
2023-01-03T10:10:31.023Z,9.90
2023-01-03T10:13:19.755Z,9.90
2023-01-03T10:16:06.707Z,9.90
2023-01-03T10:19:11.089Z,9.90
2023-01-03T10:22:07.688Z,9.90
2023-01-03T10:25:12.649Z,9.90
2023-01-03T10:27:48.358Z,9.90
2023-01-03T10:30:17.566Z,10.00
2023-01-03T10:33:10.730Z,10.00
2023-01-03T10:35:37.460Z,10.00
2023-01-03T10:38:04.198Z,10.00
2023-01-03T10:40:59.593Z,10.00
2023-01-03T10:43:32.237Z,10.00
2023-01-03T10:46:00.200Z,10.10
2023-01-03T10:49:16.959Z,10.10
2023-01-03T10:51:41.963Z,10.20
2023-01-03T10:54:23.635Z,10.20
2023-01-03T10:56:50.417Z,10.10
2023-01-03T10:59:22.619Z,10.10
2023-01-03T11:02:16.657Z,10.10
2023-01-03T11:04:43.662Z,10.10
2023-01-03T11:07:13.109Z,10.10
2023-01-03T11:09:52.282Z,10.20
2023-01-03T11:12:38.109Z,10.20
2023-01-03T11:15:35.954Z,10.20
2023-01-03T11:18:07.353Z,10.30
2023-01-03T11:20:41.542Z,10.30
2023-01-03T11:23:13.734Z,10.30
2023-01-03T11:25:50.724Z,10.30
2023-01-03T11:28:38.502Z,10.30
2023-01-03T11:31:10.938Z,10.30
2023-01-03T11:33:43.653Z,10.30
2023-01-03T11:36:39.525Z,10.20
2023-01-03T11:39:21.270Z,10.20
2023-01-03T11:42:21.845Z,10.30
2023-01-03T11:45:03.809Z,10.30
2023-01-03T11:48:06.805Z,10.30
2023-01-03T11:50:42.234Z,10.30
2023-01-03T11:53:30.529Z,10.20
2023-01-03T11:56:11.129Z,10.30
2023-01-03T11:59:16.129Z,10.30
2023-01-03T12:02:23.809Z,10.20
2023-01-03T12:04:50.586Z,10.30
2023-01-03T12:07:47.220Z,10.20
2023-01-03T12:10:59.884Z,10.30
2023-01-03T12:13:44.703Z,10.30
2023-01-03T12:16:16.942Z,10.30
2023-01-03T12:19:12.524Z,10.30
2023-01-03T12:21:43.006Z,10.30
2023-01-03T12:24:15.619Z,10.30
2023-01-03T12:26:43.329Z,10.30
2023-01-03T12:29:19.496Z,10.30
2023-01-03T12:31:54.235Z,10.30
2023-01-03T12:34:42.905Z,10.30
2023-01-03T12:37:25.504Z,10.20
2023-01-03T12:40:10.750Z,10.20
2023-01-03T12:42:50.965Z,10.20
2023-01-03T12:45:32.868Z,10.20
2023-01-03T12:48:18.247Z,10.20
2023-01-03T12:50:49.311Z,10.20
2023-01-03T12:53:20.477Z,10.20
2023-01-03T12:55:53.231Z,10.20
2023-01-03T12:58:39.968Z,10.20
2023-01-03T13:01:14.161Z,10.20
2023-01-03T13:03:44.346Z,10.20
2023-01-03T13:06:16.519Z,10.20
2023-01-03T13:08:55.298Z,10.20
2023-01-03T13:11:22.969Z,10.30
2023-01-03T13:13:54.693Z,10.30
2023-01-03T13:16:37.076Z,10.30
2023-01-03T13:19:22.388Z,10.30
2023-01-03T13:21:55.213Z,10.40
2023-01-03T13:24:43.950Z,10.40
2023-01-03T13:27:19.789Z,10.40
2023-01-03T13:29:49.290Z,10.50
2023-01-03T13:32:22.198Z,10.50
2023-01-03T13:34:54.765Z,10.50
2023-01-03T13:37:22.905Z,10.60
2023-01-03T13:39:52.694Z,10.50
2023-01-03T13:42:36.568Z,10.60
2023-01-03T13:45:15.644Z,10.50
2023-01-03T13:47:44.030Z,10.60
2023-01-03T13:50:20.806Z,10.60
2023-01-03T13:53:04.977Z,10.60
2023-01-03T13:55:38.207Z,10.60
2023-01-03T13:58:25.796Z,10.60
2023-01-03T14:00:54.357Z,10.70
2023-01-03T14:03:21.655Z,10.70
2023-01-03T14:06:32.784Z,10.70
2023-01-03T14:09:12.173Z,10.70
2023-01-03T14:12:07.449Z,10.70
2023-01-03T14:14:36.188Z,10.70
2023-01-03T14:17:02.900Z,10.70
2023-01-03T14:19:35.610Z,10.70
2023-01-03T14:22:28.846Z,10.70
2023-01-03T14:24:58.665Z,10.80
2023-01-03T14:27:35.066Z,10.80
2023-01-03T14:30:01.833Z,10.70
2023-01-03T14:32:34.336Z,10.70
2023-01-03T14:35:01.686Z,10.60
2023-01-03T14:37:28.535Z,10.60
2023-01-03T14:40:03.046Z,10.60
2023-01-03T14:42:30.157Z,10.50
2023-01-03T14:45:01.209Z,10.50
2023-01-03T14:47:41.237Z,10.50
2023-01-03T14:50:37.604Z,10.50
2023-01-03T14:53:04.570Z,10.50
2023-01-03T14:55:32.512Z,10.50
2023-01-03T14:57:59.398Z,10.50
2023-01-03T15:00:33.217Z,10.50
2023-01-03T15:03:00.553Z,10.60
2023-01-03T15:05:35.444Z,10.60
2023-01-03T15:08:15.084Z,10.60
2023-01-03T15:11:03.711Z,10.70
2023-01-03T15:13:33.514Z,10.70
2023-01-03T15:16:01.537Z,10.70
2023-01-03T15:18:30.891Z,10.70
2023-01-03T15:20:58.011Z,10.70
2023-01-03T15:23:35.951Z,10.70
2023-01-03T15:26:02.734Z,10.70
2023-01-03T15:28:30.666Z,10.70
2023-01-03T15:31:01.215Z,10.70
2023-01-03T15:33:35.786Z,10.70
2023-01-03T15:36:10.898Z,10.70
2023-01-03T15:38:45.275Z,10.70
2023-01-03T15:41:43.401Z,10.70
2023-01-03T15:44:10.201Z,10.70
2023-01-03T15:46:36.872Z,10.70
2023-01-03T15:49:04.069Z,10.70
2023-01-03T15:51:30.756Z,10.70
2023-01-03T15:53:57.602Z,10.70
2023-01-03T15:56:27.713Z,10.70
2023-01-03T15:58:55.209Z,10.80
2023-01-03T16:01:22.253Z,10.80
2023-01-03T16:03:49.537Z,10.80
2023-01-03T16:06:16.758Z,10.80
2023-01-03T16:08:43.532Z,10.90
2023-01-03T16:11:16.929Z,10.90
2023-01-03T16:13:51.562Z,10.90
2023-01-03T16:16:22.331Z,10.90
2023-01-03T16:18:49.151Z,11.00
2023-01-03T16:21:15.875Z,11.00
2023-01-03T16:23:42.679Z,11.00
2023-01-03T16:26:09.565Z,11.00
2023-01-03T16:28:36.278Z,11.00
2023-01-03T16:31:30.346Z,11.00
2023-01-03T16:33:57.080Z,11.00
2023-01-03T16:36:27.052Z,11.00
2023-01-03T16:38:53.711Z,11.10
2023-01-03T16:41:20.493Z,11.10
2023-01-03T16:43:47.223Z,11.10
2023-01-03T16:46:14.742Z,11.10
2023-01-03T16:48:43.003Z,11.20
2023-01-03T16:51:12.405Z,11.10
2023-01-03T16:53:39.797Z,11.20
2023-01-03T16:56:07.287Z,11.10
2023-01-03T16:58:34.041Z,11.10
2023-01-03T17:01:00.808Z,11.10
2023-01-03T17:03:27.794Z,11.10
2023-01-03T17:05:54.514Z,11.10
2023-01-03T17:08:26.002Z,11.00
2023-01-03T17:10:54.408Z,11.00
2023-01-03T17:13:38.040Z,11.00
2023-01-03T17:16:06.236Z,11.00
2023-01-03T17:18:37.243Z,10.90
2023-01-03T17:21:18.773Z,10.90
2023-01-03T17:23:45.513Z,10.90
2023-01-03T17:26:14.228Z,10.90
2023-01-03T17:28:43.248Z,10.90
2023-01-03T17:31:15.415Z,10.90
2023-01-03T17:33:42.552Z,10.90
2023-01-03T17:36:15.789Z,10.90
2023-01-03T17:38:43.057Z,10.90
2023-01-03T17:41:19.664Z,10.90
2023-01-03T17:43:46.587Z,10.90
2023-01-03T17:46:43.538Z,10.90
2023-01-03T17:49:28.085Z,10.90
2023-01-03T17:52:06.389Z,10.90
2023-01-03T17:54:38.497Z,10.90
2023-01-03T17:57:05.328Z,10.90
2023-01-03T17:59:32.205Z,10.90
2023-01-03T18:01:59.023Z,10.90
2023-01-03T18:04:38.484Z,10.90
2023-01-03T18:07:19.886Z,10.90
2023-01-03T18:09:47.281Z,10.90
2023-01-03T18:12:16.698Z,10.90
2023-01-03T18:14:43.638Z,10.90
2023-01-03T18:17:22.751Z,10.80
2023-01-03T18:19:49.612Z,10.80
2023-01-03T18:22:16.482Z,10.80
2023-01-03T18:24:43.247Z,10.80
2023-01-03T18:27:10.041Z,10.80
2023-01-03T18:29:36.807Z,10.80
2023-01-03T18:32:26.599Z,10.80
2023-01-03T18:34:53.795Z,10.80
2023-01-03T18:37:21.472Z,10.80
2023-01-03T18:39:48.377Z,10.80
2023-01-03T18:42:33.523Z,10.80
2023-01-03T18:45:00.333Z,10.80
2023-01-03T18:47:27.149Z,10.80
2023-01-03T18:49:53.962Z,10.80
2023-01-03T18:52:25.146Z,10.80
2023-01-03T18:54:51.851Z,10.80
2023-01-03T18:57:18.973Z,10.90
2023-01-03T18:59:49.492Z,10.90
2023-01-03T19:02:20.595Z,10.90
2023-01-03T19:04:51.256Z,10.90
2023-01-03T19:07:19.971Z,11.00
2023-01-03T19:09:47.170Z,11.00
2023-01-03T19:12:17.300Z,11.00
2023-01-03T19:14:46.734Z,11.00
2023-01-03T19:17:15.117Z,11.00
2023-01-03T19:19:41.983Z,11.00
2023-01-03T19:22:22.165Z,11.00
2023-01-03T19:24:48.950Z,11.00
2023-01-03T19:27:21.003Z,11.10
2023-01-03T19:29:47.984Z,11.10
2023-01-03T19:32:23.044Z,11.10
2023-01-03T19:34:50.068Z,11.10
2023-01-03T19:37:17.073Z,11.10
2023-01-03T19:39:44.595Z,11.10
2023-01-03T19:42:32.215Z,11.10
2023-01-03T19:44:59.765Z,11.20
2023-01-03T19:47:26.573Z,11.20
2023-01-03T19:49:54.111Z,11.20
2023-01-03T19:52:21.375Z,11.20
2023-01-03T19:54:48.050Z,11.20
2023-01-03T19:57:21.619Z,11.20
2023-01-03T19:59:51.444Z,11.20
2023-01-03T20:02:37.143Z,11.20
2023-01-03T20:05:12.759Z,11.20
2023-01-03T20:07:39.737Z,11.20
2023-01-03T20:10:07.547Z,11.20
2023-01-03T20:12:34.850Z,11.20
2023-01-03T20:15:06.922Z,11.20
2023-01-03T20:17:34.085Z,11.30
2023-01-03T20:20:00.920Z,11.30
2023-01-03T20:23:03.065Z,11.30
2023-01-03T20:25:28.779Z,11.30
2023-01-03T20:27:55.965Z,11.30
2023-01-03T20:30:24.661Z,11.40
2023-01-03T20:32:52.183Z,11.40
2023-01-03T20:38:07.290Z,11.40
2023-01-03T20:40:34.571Z,11.40
2023-01-03T20:43:02.223Z,11.50
2023-01-03T20:45:29.183Z,11.50
2023-01-03T20:47:55.936Z,11.50
2023-01-03T20:50:24.845Z,11.50
2023-01-03T20:52:51.622Z,11.50
2023-01-03T20:55:20.217Z,11.50
2023-01-03T20:57:47.322Z,11.60
2023-01-03T21:00:22.109Z,11.60
2023-01-03T21:02:49.670Z,11.60
2023-01-03T21:05:16.880Z,11.70
2023-01-03T21:08:02.613Z,11.70
2023-01-03T21:10:31.764Z,11.70
2023-01-03T21:12:58.499Z,11.80
2023-01-03T21:15:25.287Z,11.90
2023-01-03T21:17:52.026Z,11.90
2023-01-03T21:20:20.668Z,11.90
2023-01-03T21:22:47.394Z,11.90
2023-01-03T21:25:27.460Z,12.00
2023-01-03T21:27:54.365Z,12.00
2023-01-03T21:30:21.759Z,12.10
2023-01-03T21:32:48.591Z,12.10
2023-01-03T21:35:17.517Z,12.20
2023-01-03T21:37:44.476Z,12.20
2023-01-03T21:40:18.430Z,12.20
2023-01-03T21:43:04.191Z,12.20
2023-01-03T21:45:35.480Z,12.10
2023-01-03T21:48:10.546Z,12.10
2023-01-03T21:50:44.111Z,12.10
2023-01-03T21:53:15.094Z,12.20
2023-01-03T21:55:41.921Z,12.20
2023-01-03T21:58:10.422Z,12.20
2023-01-03T22:00:37.178Z,12.30
2023-01-03T22:03:22.456Z,12.30
2023-01-03T22:05:49.239Z,12.30
2023-01-03T22:08:15.901Z,12.30
2023-01-03T22:10:42.652Z,12.30
2023-01-03T22:13:09.660Z,12.30
2023-01-03T22:15:37.035Z,12.40
2023-01-03T22:18:05.827Z,12.40
2023-01-03T22:20:38.253Z,12.40
2023-01-03T22:23:06.814Z,12.40
2023-01-03T22:25:33.641Z,12.40
2023-01-03T22:28:00.368Z,12.50
2023-01-03T22:30:27.228Z,12.50
2023-01-03T22:32:56.370Z,12.50
2023-01-03T22:35:23.102Z,12.50
2023-01-03T22:37:49.840Z,12.50
2023-01-03T22:40:17.079Z,12.60
2023-01-03T22:42:43.990Z,12.60
2023-01-03T22:45:10.856Z,12.60
2023-01-03T22:47:37.898Z,12.60
2023-01-03T22:50:05.929Z,12.50
2023-01-03T22:52:32.607Z,12.50
2023-01-03T22:54:59.432Z,12.50
2023-01-03T22:57:26.229Z,12.50
2023-01-03T22:59:53.007Z,12.50
2023-01-03T23:02:24.568Z,12.50
2023-01-03T23:04:55.066Z,12.50
2023-01-03T23:07:21.716Z,12.50
2023-01-03T23:09:48.437Z,12.60
2023-01-03T23:12:33.712Z,12.60
2023-01-03T23:15:00.361Z,12.60
2023-01-03T23:17:45.608Z,12.60
2023-01-03T23:20:12.404Z,12.60
2023-01-03T23:22:39.178Z,12.60
2023-01-03T23:25:06.319Z,12.60
2023-01-03T23:27:32.986Z,12.60
2023-01-03T23:29:59.756Z,12.60
2023-01-03T23:32:26.534Z,12.70
2023-01-03T23:34:53.282Z,12.70
2023-01-03T23:37:20.335Z,12.70
2023-01-03T23:39:47.146Z,12.70
2023-01-03T23:42:13.863Z,12.70
2023-01-03T23:44:40.551Z,12.70
2023-01-03T23:47:11.962Z,12.80
2023-01-03T23:49:39.657Z,12.80
2023-01-03T23:52:06.399Z,12.80
2023-01-03T23:54:33.133Z,12.80
2023-01-03T23:56:59.830Z,12.80
2023-01-03T23:59:26.761Z,12.80
